LGRP

Diagoras Airport

Rodes Island, Greece
TAF LGRP 221100Z 2212/2312 26015KT 9999 FEW018
Issued Valid From Valid To
Sep-22 @ 11:00 UTC
(4 hours ago)
Sep-22 @ 12:00 UTC
(3 hours ago)
Sep-23 @ 12:00 UTC
(in 21 hours)
to
TAF LGRP 221100Z 2212/2312 26015KT 9999 FEW018
Issued Sep-22 @ 11:00 UTC
(4 hours ago)
Valid From Sep-22 @ 12:00 UTC
(3 hours ago)
Valid To Sep-23 @ 12:00 UTC
(in 21 hours)
-